logo
Search for airport 
image banner adimage banner adimage banner ad
image banner ad

UCFO - Osh

Located in Osh, Kyrgyzstan

ICAO - , IATA - OSS

Data provided by Airmate  

General information

Coordinates: N40°36'32" E72°47'36"
Elevation is 2938 feet MSL.
Magnetic variation is +4° East
Rated:
View ratings:
[VIEW]
View others Airports in Osh

Operational data

Special qualification required
Current time UTC:
Current local time:
Weather
METAR: UCFO 141600Z 08003MPS 050V110 9999 FEW050CB 20/16 Q1007 NOSIG
View NOTAMs / SUP AIP / TFR affecting this airport [VIEW]
Communications frequencies: [VIEW]

Runways:

RWY identifierQFULength (ft)Width (ft)SurfaceLDA (ft)
12126°10538148CONC+ASPH9882
30306°10538148CONC+ASPH10538

Airport contact information

Address: Osh Kyrgyzstan

Satellite view of UCFO